sensor_id;sensor_type;location;lat;lon;timestamp;P1;durP1;ratioP1;P2;durP2;ratioP2
3939;SDS011;1984;48.312;9.244;2023-11-21T00:02:19;6.83;;;2.03;;
3939;SDS011;1984;48.312;9.244;2023-11-21T00:04:45;5.23;;;2.10;;
3939;SDS011;1984;48.312;9.244;2023-11-21T00:07:13;3.30;;;1.53;;
3939;SDS011;1984;48.312;9.244;2023-11-21T00:09:39;8.27;;;2.50;;
3939;SDS011;1984;48.312;9.244;2023-11-21T00:12:06;9.00;;;2.33;;
3939;SDS011;1984;48.312;9.244;2023-11-21T00:14:34;3.03;;;1.97;;
3939;SDS011;1984;48.312;9.244;2023-11-21T00:17:01;4.40;;;2.80;;
3939;SDS011;1984;48.312;9.244;2023-11-21T00:19:26;7.93;;;2.47;;
3939;SDS011;1984;48.312;9.244;2023-11-21T00:21:52;5.97;;;1.80;;
3939;SDS011;1984;48.312;9.244;2023-11-21T00:24:18;0.97;;;0.97;;
3939;SDS011;1984;48.312;9.244;2023-11-21T00:26:43;3.83;;;1.80;;
3939;SDS011;1984;48.312;9.244;2023-11-21T00:29:09;6.77;;;1.67;;
3939;SDS011;1984;48.312;9.244;2023-11-21T00:31:35;3.27;;;1.53;;
3939;SDS011;1984;48.312;9.244;2023-11-21T00:34:02;5.37;;;1.57;;
3939;SDS011;1984;48.312;9.244;2023-11-21T00:36:30;4.67;;;1.70;;
3939;SDS011;1984;48.312;9.244;2023-11-21T00:38:56;4.80;;;1.90;;
3939;SDS011;1984;48.312;9.244;2023-11-21T00:41:22;5.00;;;1.77;;
3939;SDS011;1984;48.312;9.244;2023-11-21T00:43:47;5.27;;;1.10;;
3939;SDS011;1984;48.312;9.244;2023-11-21T00:46:13;6.10;;;2.00;;
3939;SDS011;1984;48.312;9.244;2023-11-21T00:48:38;3.67;;;1.73;;
3939;SDS011;1984;48.312;9.244;2023-11-21T00:51:04;4.00;;;1.50;;
3939;SDS011;1984;48.312;9.244;2023-11-21T00:53:31;4.00;;;1.73;;
3939;SDS011;1984;48.312;9.244;2023-11-21T00:55:57;2.30;;;1.10;;
3939;SDS011;1984;48.312;9.244;2023-11-21T00:58:25;2.17;;;1.27;;
3939;SDS011;1984;48.312;9.244;2023-11-21T01:00:51;9.70;;;1.40;;
3939;SDS011;1984;48.312;9.244;2023-11-21T01:03:16;3.97;;;1.27;;
3939;SDS011;1984;48.312;9.244;2023-11-21T01:05:42;4.57;;;1.73;;
3939;SDS011;1984;48.312;9.244;2023-11-21T01:08:07;8.37;;;1.33;;
3939;SDS011;1984;48.312;9.244;2023-11-21T01:10:33;5.07;;;1.90;;
3939;SDS011;1984;48.312;9.244;2023-11-21T01:13:01;1.20;;;1.10;;
3939;SDS011;1984;48.312;9.244;2023-11-21T01:15:29;1.93;;;1.40;;
3939;SDS011;1984;48.312;9.244;2023-11-21T01:17:54;7.57;;;1.90;;
3939;SDS011;1984;48.312;9.244;2023-11-21T01:20:20;3.33;;;1.47;;
3939;SDS011;1984;48.312;9.244;2023-11-21T01:22:45;2.10;;;1.17;;
3939;SDS011;1984;48.312;9.244;2023-11-21T01:25:13;2.10;;;1.53;;
3939;SDS011;1984;48.312;9.244;2023-11-21T01:27:39;4.40;;;1.30;;
3939;SDS011;1984;48.312;9.244;2023-11-21T01:30:05;2.10;;;1.20;;
3939;SDS011;1984;48.312;9.244;2023-11-21T01:32:32;1.97;;;1.23;;
3939;SDS011;1984;48.312;9.244;2023-11-21T01:34:59;2.10;;;1.37;;
3939;SDS011;1984;48.312;9.244;2023-11-21T01:37:24;3.10;;;1.27;;
3939;SDS011;1984;48.312;9.244;2023-11-21T01:39:52;4.43;;;1.40;;
3939;SDS011;1984;48.312;9.244;2023-11-21T01:42:19;2.97;;;1.63;;
3939;SDS011;1984;48.312;9.244;2023-11-21T01:44:45;5.60;;;1.37;;
3939;SDS011;1984;48.312;9.244;2023-11-21T01:47:11;3.60;;;1.70;;
3939;SDS011;1984;48.312;9.244;2023-11-21T01:49:38;5.40;;;1.57;;
3939;SDS011;1984;48.312;9.244;2023-11-21T01:52:04;4.07;;;1.63;;
3939;SDS011;1984;48.312;9.244;2023-11-21T01:54:30;7.17;;;1.40;;
3939;SDS011;1984;48.312;9.244;2023-11-21T01:56:57;6.83;;;2.17;;
3939;SDS011;1984;48.312;9.244;2023-11-21T01:59:27;2.20;;;1.43;;
3939;SDS011;1984;48.312;9.244;2023-11-21T02:02:01;3.77;;;1.13;;
3939;SDS011;1984;48.312;9.244;2023-11-21T02:04:29;1.40;;;0.90;;
3939;SDS011;1984;48.312;9.244;2023-11-21T02:06:56;3.30;;;1.30;;
3939;SDS011;1984;48.312;9.244;2023-11-21T02:09:26;3.50;;;1.20;;
3939;SDS011;1984;48.312;9.244;2023-11-21T02:11:53;3.10;;;1.30;;
3939;SDS011;1984;48.312;9.244;2023-11-21T02:14:19;3.40;;;1.07;;
3939;SDS011;1984;48.312;9.244;2023-11-21T02:16:50;4.70;;;1.30;;
3939;SDS011;1984;48.312;9.244;2023-11-21T02:19:22;11.27;;;1.87;;
3939;SDS011;1984;48.312;9.244;2023-11-21T02:21:50;4.73;;;1.43;;
3939;SDS011;1984;48.312;9.244;2023-11-21T02:24:18;2.07;;;1.40;;
3939;SDS011;1984;48.312;9.244;2023-11-21T02:26:47;4.50;;;1.50;;
3939;SDS011;1984;48.312;9.244;2023-11-21T02:29:16;5.30;;;1.30;;
3939;SDS011;1984;48.312;9.244;2023-11-21T02:31:43;4.37;;;1.50;;
3939;SDS011;1984;48.312;9.244;2023-11-21T02:34:15;3.00;;;1.30;;
3939;SDS011;1984;48.312;9.244;2023-11-21T02:36:42;2.73;;;0.93;;
3939;SDS011;1984;48.312;9.244;2023-11-21T02:39:08;3.73;;;1.23;;
3939;SDS011;1984;48.312;9.244;2023-11-21T02:41:34;3.00;;;1.47;;
3939;SDS011;1984;48.312;9.244;2023-11-21T02:44:00;2.50;;;1.23;;
3939;SDS011;1984;48.312;9.244;2023-11-21T02:46:26;3.20;;;1.20;;
3939;SDS011;1984;48.312;9.244;2023-11-21T02:48:51;5.90;;;1.33;;
3939;SDS011;1984;48.312;9.244;2023-11-21T02:51:19;7.70;;;1.30;;
3939;SDS011;1984;48.312;9.244;2023-11-21T02:53:45;4.80;;;1.60;;
3939;SDS011;1984;48.312;9.244;2023-11-21T02:56:11;2.00;;;0.90;;
3939;SDS011;1984;48.312;9.244;2023-11-21T02:58:37;1.60;;;0.93;;
3939;SDS011;1984;48.312;9.244;2023-11-21T03:01:03;2.57;;;1.53;;
3939;SDS011;1984;48.312;9.244;2023-11-21T03:03:30;1.40;;;1.30;;
3939;SDS011;1984;48.312;9.244;2023-11-21T03:05:56;4.90;;;1.50;;
3939;SDS011;1984;48.312;9.244;2023-11-21T03:08:21;1.07;;;0.97;;
3939;SDS011;1984;48.312;9.244;2023-11-21T03:10:47;2.50;;;1.37;;
3939;SDS011;1984;48.312;9.244;2023-11-21T03:13:12;3.20;;;1.23;;
3939;SDS011;1984;48.312;9.244;2023-11-21T03:15:38;1.97;;;1.30;;
3939;SDS011;1984;48.312;9.244;2023-11-21T03:18:04;1.37;;;0.90;;
3939;SDS011;1984;48.312;9.244;2023-11-21T03:20:30;1.90;;;0.83;;
3939;SDS011;1984;48.312;9.244;2023-11-21T03:22:55;1.00;;;0.90;;
3939;SDS011;1984;48.312;9.244;2023-11-21T03:25:21;1.83;;;0.80;;
3939;SDS011;1984;48.312;9.244;2023-11-21T03:27:49;1.20;;;1.10;;
3939;SDS011;1984;48.312;9.244;2023-11-21T03:30:14;4.47;;;1.40;;
3939;SDS011;1984;48.312;9.244;2023-11-21T03:32:40;1.90;;;0.77;;
3939;SDS011;1984;48.312;9.244;2023-11-21T03:35:05;0.77;;;0.77;;
3939;SDS011;1984;48.312;9.244;2023-11-21T03:37:32;0.77;;;0.77;;
3939;SDS011;1984;48.312;9.244;2023-11-21T03:39:57;2.47;;;1.70;;
3939;SDS011;1984;48.312;9.244;2023-11-21T03:42:23;1.10;;;1.00;;
3939;SDS011;1984;48.312;9.244;2023-11-21T03:44:50;2.87;;;1.07;;
3939;SDS011;1984;48.312;9.244;2023-11-21T03:47:16;1.30;;;1.20;;
3939;SDS011;1984;48.312;9.244;2023-11-21T03:49:41;1.30;;;1.30;;
3939;SDS011;1984;48.312;9.244;2023-11-21T03:52:07;6.13;;;1.67;;
3939;SDS011;1984;48.312;9.244;2023-11-21T03:54:32;1.27;;;1.17;;
3939;SDS011;1984;48.312;9.244;2023-11-21T03:56:58;1.00;;;1.00;;
3939;SDS011;1984;48.312;9.244;2023-11-21T03:59:23;2.27;;;1.40;;
3939;SDS011;1984;48.312;9.244;2023-11-21T04:01:49;1.40;;;1.40;;
3939;SDS011;1984;48.312;9.244;2023-11-21T04:04:15;2.10;;;1.30;;
3939;SDS011;1984;48.312;9.244;2023-11-21T04:06:41;1.50;;;1.37;;
3939;SDS011;1984;48.312;9.244;2023-11-21T04:09:06;1.20;;;1.10;;
3939;SDS011;1984;48.312;9.244;2023-11-21T04:11:32;1.43;;;1.17;;
3939;SDS011;1984;48.312;9.244;2023-11-21T04:13:57;2.20;;;1.87;;
3939;SDS011;1984;48.312;9.244;2023-11-21T04:16:23;5.87;;;1.40;;
3939;SDS011;1984;48.312;9.244;2023-11-21T04:18:49;3.53;;;1.10;;
3939;SDS011;1984;48.312;9.244;2023-11-21T04:21:14;5.77;;;1.43;;
3939;SDS011;1984;48.312;9.244;2023-11-21T04:23:40;1.03;;;1.00;;
3939;SDS011;1984;48.312;9.244;2023-11-21T04:26:05;4.20;;;1.20;;
3939;SDS011;1984;48.312;9.244;2023-11-21T04:28:31;0.70;;;0.63;;
3939;SDS011;1984;48.312;9.244;2023-11-21T04:30:57;0.90;;;0.90;;
3939;SDS011;1984;48.312;9.244;2023-11-21T04:33:22;2.87;;;0.83;;
3939;SDS011;1984;48.312;9.244;2023-11-21T04:35:48;1.17;;;0.70;;
3939;SDS011;1984;48.312;9.244;2023-11-21T04:38:14;3.03;;;0.70;;
3939;SDS011;1984;48.312;9.244;2023-11-21T04:40:39;0.63;;;0.63;;
3939;SDS011;1984;48.312;9.244;2023-11-21T04:43:05;2.30;;;1.27;;
3939;SDS011;1984;48.312;9.244;2023-11-21T04:45:30;1.07;;;0.90;;
3939;SDS011;1984;48.312;9.244;2023-11-21T04:47:56;2.37;;;1.07;;
3939;SDS011;1984;48.312;9.244;2023-11-21T04:50:22;2.80;;;1.10;;
3939;SDS011;1984;48.312;9.244;2023-11-21T04:52:47;4.30;;;1.23;;
3939;SDS011;1984;48.312;9.244;2023-11-21T04:55:13;1.93;;;1.07;;
3939;SDS011;1984;48.312;9.244;2023-11-21T04:57:38;0.80;;;0.60;;
3939;SDS011;1984;48.312;9.244;2023-11-21T05:00:06;1.90;;;0.70;;
3939;SDS011;1984;48.312;9.244;2023-11-21T05:02:33;5.00;;;1.50;;
3939;SDS011;1984;48.312;9.244;2023-11-21T05:05:00;1.83;;;1.30;;
3939;SDS011;1984;48.312;9.244;2023-11-21T05:07:25;1.30;;;1.17;;
3939;SDS011;1984;48.312;9.244;2023-11-21T05:09:53;1.10;;;1.10;;
3939;SDS011;1984;48.312;9.244;2023-11-21T05:12:20;5.20;;;1.17;;
3939;SDS011;1984;48.312;9.244;2023-11-21T05:14:47;1.60;;;1.50;;
3939;SDS011;1984;48.312;9.244;2023-11-21T05:17:13;4.23;;;2.33;;
3939;SDS011;1984;48.312;9.244;2023-11-21T05:19:39;1.63;;;1.50;;
3939;SDS011;1984;48.312;9.244;2023-11-21T05:22:05;2.07;;;1.30;;
3939;SDS011;1984;48.312;9.244;2023-11-21T05:24:31;2.13;;;1.93;;
3939;SDS011;1984;48.312;9.244;2023-11-21T05:26:56;2.47;;;1.70;;
3939;SDS011;1984;48.312;9.244;2023-11-21T05:29:22;6.50;;;2.20;;
3939;SDS011;1984;48.312;9.244;2023-11-21T05:31:48;2.93;;;1.93;;
3939;SDS011;1984;48.312;9.244;2023-11-21T05:34:14;2.30;;;2.10;;
3939;SDS011;1984;48.312;9.244;2023-11-21T05:36:42;3.33;;;1.67;;
3939;SDS011;1984;48.312;9.244;2023-11-21T05:39:08;4.43;;;1.83;;
3939;SDS011;1984;48.312;9.244;2023-11-21T05:41:36;6.20;;;2.73;;
3939;SDS011;1984;48.312;9.244;2023-11-21T05:44:01;4.33;;;2.53;;
3939;SDS011;1984;48.312;9.244;2023-11-21T05:46:27;2.23;;;1.50;;
3939;SDS011;1984;48.312;9.244;2023-11-21T05:48:52;1.83;;;1.70;;
3939;SDS011;1984;48.312;9.244;2023-11-21T05:51:18;4.23;;;2.30;;
3939;SDS011;1984;48.312;9.244;2023-11-21T05:53:44;8.27;;;2.23;;
3939;SDS011;1984;48.312;9.244;2023-11-21T05:56:09;8.00;;;4.07;;
3939;SDS011;1984;48.312;9.244;2023-11-21T05:58:35;7.00;;;3.33;;
3939;SDS011;1984;48.312;9.244;2023-11-21T06:01:00;4.83;;;3.00;;
3939;SDS011;1984;48.312;9.244;2023-11-21T06:03:26;3.33;;;3.03;;
3939;SDS011;1984;48.312;9.244;2023-11-21T06:05:51;3.50;;;2.90;;
3939;SDS011;1984;48.312;9.244;2023-11-21T06:08:17;4.10;;;2.13;;
3939;SDS011;1984;48.312;9.244;2023-11-21T06:10:43;2.27;;;2.07;;
3939;SDS011;1984;48.312;9.244;2023-11-21T06:13:09;5.33;;;2.77;;
3939;SDS011;1984;48.312;9.244;2023-11-21T06:15:35;4.53;;;2.27;;
3939;SDS011;1984;48.312;9.244;2023-11-21T06:18:01;6.67;;;2.60;;
3939;SDS011;1984;48.312;9.244;2023-11-21T06:20:27;3.07;;;2.00;;
3939;SDS011;1984;48.312;9.244;2023-11-21T06:22:53;4.00;;;3.60;;
3939;SDS011;1984;48.312;9.244;2023-11-21T06:25:19;5.47;;;3.57;;
3939;SDS011;1984;48.312;9.244;2023-11-21T06:27:45;4.13;;;3.67;;
3939;SDS011;1984;48.312;9.244;2023-11-21T06:30:12;5.60;;;2.30;;
3939;SDS011;1984;48.312;9.244;2023-11-21T06:32:40;2.30;;;1.70;;
3939;SDS011;1984;48.312;9.244;2023-11-21T06:35:10;1.60;;;1.53;;
3939;SDS011;1984;48.312;9.244;2023-11-21T06:37:36;1.63;;;1.40;;
3939;SDS011;1984;48.312;9.244;2023-11-21T06:40:02;1.60;;;1.50;;
3939;SDS011;1984;48.312;9.244;2023-11-21T06:42:29;3.37;;;1.80;;
3939;SDS011;1984;48.312;9.244;2023-11-21T06:44:55;11.90;;;4.17;;
3939;SDS011;1984;48.312;9.244;2023-11-21T06:47:22;5.03;;;2.50;;
3939;SDS011;1984;48.312;9.244;2023-11-21T06:49:52;12.30;;;4.60;;
3939;SDS011;1984;48.312;9.244;2023-11-21T06:52:18;20.30;;;6.50;;
3939;SDS011;1984;48.312;9.244;2023-11-21T06:54:45;10.53;;;3.90;;
3939;SDS011;1984;48.312;9.244;2023-11-21T06:57:12;8.40;;;4.00;;
3939;SDS011;1984;48.312;9.244;2023-11-21T06:59:38;10.93;;;3.43;;
3939;SDS011;1984;48.312;9.244;2023-11-21T07:02:04;6.43;;;3.70;;
3939;SDS011;1984;48.312;9.244;2023-11-21T07:04:33;3.67;;;2.80;;
3939;SDS011;1984;48.312;9.244;2023-11-21T07:06:58;4.13;;;2.80;;
3939;SDS011;1984;48.312;9.244;2023-11-21T07:09:24;2.43;;;2.10;;
3939;SDS011;1984;48.312;9.244;2023-11-21T07:11:51;9.70;;;4.67;;
3939;SDS011;1984;48.312;9.244;2023-11-21T07:14:17;5.30;;;3.83;;
3939;SDS011;1984;48.312;9.244;2023-11-21T07:16:44;4.37;;;3.37;;
3939;SDS011;1984;48.312;9.244;2023-11-21T07:19:10;6.43;;;3.73;;
3939;SDS011;1984;48.312;9.244;2023-11-21T07:21:37;12.73;;;4.57;;
3939;SDS011;1984;48.312;9.244;2023-11-21T07:24:03;1.97;;;1.87;;
3939;SDS011;1984;48.312;9.244;2023-11-21T07:26:32;2.20;;;1.80;;
3939;SDS011;1984;48.312;9.244;2023-11-21T07:28:59;4.13;;;2.20;;
3939;SDS011;1984;48.312;9.244;2023-11-21T07:31:25;2.13;;;1.93;;
3939;SDS011;1984;48.312;9.244;2023-11-21T07:33:51;2.03;;;1.90;;
3939;SDS011;1984;48.312;9.244;2023-11-21T07:36:17;3.30;;;2.33;;
3939;SDS011;1984;48.312;9.244;2023-11-21T07:38:46;2.10;;;1.60;;
3939;SDS011;1984;48.312;9.244;2023-11-21T07:41:12;4.20;;;1.53;;
3939;SDS011;1984;48.312;9.244;2023-11-21T07:43:40;1.33;;;1.23;;
3939;SDS011;1984;48.312;9.244;2023-11-21T07:46:06;4.40;;;2.00;;
3939;SDS011;1984;48.312;9.244;2023-11-21T07:48:33;2.20;;;1.93;;
3939;SDS011;1984;48.312;9.244;2023-11-21T07:50:59;9.40;;;3.97;;
3939;SDS011;1984;48.312;9.244;2023-11-21T07:53:26;5.70;;;3.53;;
3939;SDS011;1984;48.312;9.244;2023-11-21T07:55:53;5.77;;;2.97;;
3939;SDS011;1984;48.312;9.244;2023-11-21T07:58:20;2.97;;;2.30;;
3939;SDS011;1984;48.312;9.244;2023-11-21T08:00:45;4.90;;;1.83;;
3939;SDS011;1984;48.312;9.244;2023-11-21T08:03:13;5.50;;;2.10;;
3939;SDS011;1984;48.312;9.244;2023-11-21T08:05:38;5.77;;;2.53;;
3939;SDS011;1984;48.312;9.244;2023-11-21T08:08:04;15.60;;;5.07;;
3939;SDS011;1984;48.312;9.244;2023-11-21T08:10:30;8.77;;;4.00;;
3939;SDS011;1984;48.312;9.244;2023-11-21T08:12:55;6.60;;;3.90;;
3939;SDS011;1984;48.312;9.244;2023-11-21T08:15:21;12.80;;;5.53;;
3939;SDS011;1984;48.312;9.244;2023-11-21T08:17:47;12.80;;;6.30;;
3939;SDS011;1984;48.312;9.244;2023-11-21T08:20:13;10.90;;;4.80;;
3939;SDS011;1984;48.312;9.244;2023-11-21T08:22:41;10.33;;;4.83;;
3939;SDS011;1984;48.312;9.244;2023-11-21T08:25:07;9.87;;;5.93;;
3939;SDS011;1984;48.312;9.244;2023-11-21T08:27:33;9.60;;;4.70;;
3939;SDS011;1984;48.312;9.244;2023-11-21T08:29:59;6.73;;;3.90;;
3939;SDS011;1984;48.312;9.244;2023-11-21T08:32:25;6.13;;;3.10;;
3939;SDS011;1984;48.312;9.244;2023-11-21T08:34:51;6.27;;;3.40;;
3939;SDS011;1984;48.312;9.244;2023-11-21T08:37:17;6.63;;;4.33;;
3939;SDS011;1984;48.312;9.244;2023-11-21T08:39:45;5.47;;;3.20;;
3939;SDS011;1984;48.312;9.244;2023-11-21T08:42:13;6.57;;;4.00;;
3939;SDS011;1984;48.312;9.244;2023-11-21T08:44:39;5.93;;;3.70;;
3939;SDS011;1984;48.312;9.244;2023-11-21T08:47:05;7.70;;;2.90;;
3939;SDS011;1984;48.312;9.244;2023-11-21T08:49:30;3.47;;;2.80;;
3939;SDS011;1984;48.312;9.244;2023-11-21T08:51:56;5.30;;;4.30;;
3939;SDS011;1984;48.312;9.244;2023-11-21T08:54:24;1.87;;;1.77;;
3939;SDS011;1984;48.312;9.244;2023-11-21T08:56:50;2.37;;;2.20;;
3939;SDS011;1984;48.312;9.244;2023-11-21T08:59:16;3.17;;;2.10;;
3939;SDS011;1984;48.312;9.244;2023-11-21T09:01:42;2.37;;;2.27;;
3939;SDS011;1984;48.312;9.244;2023-11-21T09:04:07;1.57;;;1.47;;
3939;SDS011;1984;48.312;9.244;2023-11-21T09:06:33;1.10;;;1.10;;
3939;SDS011;1984;48.312;9.244;2023-11-21T09:08:58;3.03;;;1.60;;
3939;SDS011;1984;48.312;9.244;2023-11-21T09:11:24;2.00;;;1.37;;
3939;SDS011;1984;48.312;9.244;2023-11-21T09:13:50;2.60;;;1.70;;
3939;SDS011;1984;48.312;9.244;2023-11-21T09:16:16;1.57;;;1.13;;
3939;SDS011;1984;48.312;9.244;2023-11-21T09:18:42;4.00;;;0.80;;
3939;SDS011;1984;48.312;9.244;2023-11-21T09:21:07;2.10;;;1.20;;
3939;SDS011;1984;48.312;9.244;2023-11-21T09:23:33;1.57;;;1.00;;
3939;SDS011;1984;48.312;9.244;2023-11-21T09:25:59;2.43;;;2.23;;
3939;SDS011;1984;48.312;9.244;2023-11-21T09:28:26;1.30;;;1.20;;
3939;SDS011;1984;48.312;9.244;2023-11-21T09:30:52;2.30;;;1.77;;
3939;SDS011;1984;48.312;9.244;2023-11-21T09:33:18;1.80;;;1.70;;
3939;SDS011;1984;48.312;9.244;2023-11-21T09:35:44;1.03;;;1.03;;
3939;SDS011;1984;48.312;9.244;2023-11-21T09:38:09;1.73;;;0.80;;
3939;SDS011;1984;48.312;9.244;2023-11-21T09:40:36;1.63;;;1.00;;
3939;SDS011;1984;48.312;9.244;2023-11-21T09:43:03;1.27;;;1.17;;
3939;SDS011;1984;48.312;9.244;2023-11-21T09:45:41;1.63;;;0.90;;
3939;SDS011;1984;48.312;9.244;2023-11-21T09:48:18;1.00;;;0.80;;
3939;SDS011;1984;48.312;9.244;2023-11-21T09:50:45;0.70;;;0.70;;
3939;SDS011;1984;48.312;9.244;2023-11-21T09:53:13;0.80;;;0.80;;
3939;SDS011;1984;48.312;9.244;2023-11-21T09:55:53;0.73;;;0.73;;
3939;SDS011;1984;48.312;9.244;2023-11-21T09:58:19;3.20;;;1.13;;
3939;SDS011;1984;48.312;9.244;2023-11-21T10:00:48;1.13;;;1.00;;
3939;SDS011;1984;48.312;9.244;2023-11-21T10:03:16;3.70;;;0.70;;
3939;SDS011;1984;48.312;9.244;2023-11-21T10:05:42;0.80;;;0.80;;
3939;SDS011;1984;48.312;9.244;2023-11-21T10:08:08;0.70;;;0.70;;
3939;SDS011;1984;48.312;9.244;2023-11-21T10:10:45;0.70;;;0.70;;
3939;SDS011;1984;48.312;9.244;2023-11-21T10:13:13;0.90;;;0.87;;
3939;SDS011;1984;48.312;9.244;2023-11-21T10:15:41;0.70;;;0.67;;
3939;SDS011;1984;48.312;9.244;2023-11-21T10:18:13;1.37;;;0.90;;
3939;SDS011;1984;48.312;9.244;2023-11-21T10:20:40;1.00;;;1.00;;
3939;SDS011;1984;48.312;9.244;2023-11-21T10:23:06;1.10;;;1.00;;
3939;SDS011;1984;48.312;9.244;2023-11-21T10:25:36;0.97;;;0.90;;
3939;SDS011;1984;48.312;9.244;2023-11-21T10:28:02;0.90;;;0.90;;
3939;SDS011;1984;48.312;9.244;2023-11-21T10:30:32;0.90;;;0.90;;
3939;SDS011;1984;48.312;9.244;2023-11-21T10:33:01;0.97;;;0.70;;
3939;SDS011;1984;48.312;9.244;2023-11-21T10:35:44;1.40;;;1.20;;
3939;SDS011;1984;48.312;9.244;2023-11-21T10:38:12;1.87;;;1.67;;
3939;SDS011;1984;48.312;9.244;2023-11-21T10:40:39;1.13;;;0.83;;
3939;SDS011;1984;48.312;9.244;2023-11-21T10:43:09;0.70;;;0.70;;
3939;SDS011;1984;48.312;9.244;2023-11-21T10:45:38;1.57;;;0.97;;
3939;SDS011;1984;48.312;9.244;2023-11-21T10:48:05;1.03;;;0.80;;
3939;SDS011;1984;48.312;9.244;2023-11-21T10:50:36;0.60;;;0.60;;
3939;SDS011;1984;48.312;9.244;2023-11-21T10:53:02;0.60;;;0.60;;
3939;SDS011;1984;48.312;9.244;2023-11-21T10:55:29;0.73;;;0.73;;
3939;SDS011;1984;48.312;9.244;2023-11-21T10:57:58;0.60;;;0.60;;
3939;SDS011;1984;48.312;9.244;2023-11-21T11:00:24;0.60;;;0.60;;
3939;SDS011;1984;48.312;9.244;2023-11-21T11:02:52;1.53;;;0.60;;
3939;SDS011;1984;48.312;9.244;2023-11-21T11:05:22;0.50;;;0.50;;
3939;SDS011;1984;48.312;9.244;2023-11-21T11:07:51;0.60;;;0.60;;
3939;SDS011;1984;48.312;9.244;2023-11-21T11:10:25;1.03;;;0.60;;
3939;SDS011;1984;48.312;9.244;2023-11-21T11:12:52;1.23;;;0.90;;
3939;SDS011;1984;48.312;9.244;2023-11-21T11:15:19;0.70;;;0.70;;
3939;SDS011;1984;48.312;9.244;2023-11-21T11:17:45;0.80;;;0.80;;
3939;SDS011;1984;48.312;9.244;2023-11-21T11:20:12;0.90;;;0.90;;
3939;SDS011;1984;48.312;9.244;2023-11-21T11:33:25;0.70;;;0.70;;
3939;SDS011;1984;48.312;9.244;2023-11-21T11:38:50;0.67;;;0.67;;
3939;SDS011;1984;48.312;9.244;2023-11-21T11:41:25;0.50;;;0.50;;
3939;SDS011;1984;48.312;9.244;2023-11-21T11:43:53;0.50;;;0.50;;
3939;SDS011;1984;48.312;9.244;2023-11-21T11:46:19;0.57;;;0.57;;
3939;SDS011;1984;48.312;9.244;2023-11-21T11:48:46;0.60;;;0.60;;
3939;SDS011;1984;48.312;9.244;2023-11-21T11:51:14;0.80;;;0.80;;
3939;SDS011;1984;48.312;9.244;2023-11-21T11:53:42;0.70;;;0.70;;
3939;SDS011;1984;48.312;9.244;2023-11-21T11:56:21;0.70;;;0.70;;
3939;SDS011;1984;48.312;9.244;2023-11-21T11:58:51;3.33;;;0.70;;
3939;SDS011;1984;48.312;9.244;2023-11-21T12:01:21;0.73;;;0.73;;
3939;SDS011;1984;48.312;9.244;2023-11-21T12:06:45;0.90;;;0.90;;
3939;SDS011;1984;48.312;9.244;2023-11-21T12:09:17;1.40;;;1.30;;
3939;SDS011;1984;48.312;9.244;2023-11-21T12:11:45;1.47;;;1.37;;
3939;SDS011;1984;48.312;9.244;2023-11-21T12:14:11;1.10;;;1.10;;
3939;SDS011;1984;48.312;9.244;2023-11-21T12:16:38;0.83;;;0.83;;
3939;SDS011;1984;48.312;9.244;2023-11-21T12:19:04;0.40;;;0.40;;
3939;SDS011;1984;48.312;9.244;2023-11-21T12:21:30;0.40;;;0.40;;
3939;SDS011;1984;48.312;9.244;2023-11-21T12:23:57;0.67;;;0.60;;
3939;SDS011;1984;48.312;9.244;2023-11-21T12:26:25;0.70;;;0.70;;
3939;SDS011;1984;48.312;9.244;2023-11-21T12:28:52;0.60;;;0.60;;
3939;SDS011;1984;48.312;9.244;2023-11-21T12:31:20;0.70;;;0.70;;
3939;SDS011;1984;48.312;9.244;2023-11-21T12:33:46;4.00;;;0.67;;
3939;SDS011;1984;48.312;9.244;2023-11-21T12:36:12;0.77;;;0.77;;
3939;SDS011;1984;48.312;9.244;2023-11-21T12:38:38;1.83;;;0.80;;
3939;SDS011;1984;48.312;9.244;2023-11-21T12:41:03;0.80;;;0.80;;
3939;SDS011;1984;48.312;9.244;2023-11-21T12:43:31;3.57;;;1.43;;
3939;SDS011;1984;48.312;9.244;2023-11-21T12:46:07;0.70;;;0.70;;
3939;SDS011;1984;48.312;9.244;2023-11-21T12:48:37;2.73;;;0.80;;
3939;SDS011;1984;48.312;9.244;2023-11-21T12:51:04;0.70;;;0.67;;
3939;SDS011;1984;48.312;9.244;2023-11-21T12:53:31;0.90;;;0.90;;
3939;SDS011;1984;48.312;9.244;2023-11-21T12:56:02;0.70;;;0.70;;
3939;SDS011;1984;48.312;9.244;2023-11-21T12:58:31;1.90;;;1.10;;
3939;SDS011;1984;48.312;9.244;2023-11-21T13:00:58;0.70;;;0.70;;
3939;SDS011;1984;48.312;9.244;2023-11-21T13:03:24;0.70;;;0.70;;
3939;SDS011;1984;48.312;9.244;2023-11-21T13:05:51;0.67;;;0.67;;
3939;SDS011;1984;48.312;9.244;2023-11-21T13:08:20;1.40;;;1.30;;
3939;SDS011;1984;48.312;9.244;2023-11-21T13:10:48;3.10;;;2.10;;
3939;SDS011;1984;48.312;9.244;2023-11-21T13:15:51;1.87;;;1.70;;
3939;SDS011;1984;48.312;9.244;2023-11-21T13:18:17;0.70;;;0.70;;
3939;SDS011;1984;48.312;9.244;2023-11-21T13:20:43;0.80;;;0.80;;
3939;SDS011;1984;48.312;9.244;2023-11-21T13:23:09;0.50;;;0.50;;
3939;SDS011;1984;48.312;9.244;2023-11-21T13:25:41;0.50;;;0.50;;
3939;SDS011;1984;48.312;9.244;2023-11-21T13:28:07;0.87;;;0.50;;
3939;SDS011;1984;48.312;9.244;2023-11-21T13:30:33;1.17;;;0.73;;
3939;SDS011;1984;48.312;9.244;2023-11-21T13:33:02;0.50;;;0.50;;
3939;SDS011;1984;48.312;9.244;2023-11-21T13:35:34;0.47;;;0.47;;
3939;SDS011;1984;48.312;9.244;2023-11-21T13:38:11;1.10;;;0.60;;
3939;SDS011;1984;48.312;9.244;2023-11-21T13:40:38;0.67;;;0.50;;
3939;SDS011;1984;48.312;9.244;2023-11-21T13:43:09;0.60;;;0.50;;
3939;SDS011;1984;48.312;9.244;2023-11-21T13:45:39;0.90;;;0.60;;
3939;SDS011;1984;48.312;9.244;2023-11-21T13:48:05;0.40;;;0.40;;
3939;SDS011;1984;48.312;9.244;2023-11-21T13:50:45;0.60;;;0.60;;
3939;SDS011;1984;48.312;9.244;2023-11-21T13:53:23;0.50;;;0.50;;
3939;SDS011;1984;48.312;9.244;2023-11-21T13:55:52;0.50;;;0.50;;
3939;SDS011;1984;48.312;9.244;2023-11-21T13:58:24;0.60;;;0.60;;
3939;SDS011;1984;48.312;9.244;2023-11-21T14:01:06;0.60;;;0.60;;
3939;SDS011;1984;48.312;9.244;2023-11-21T14:03:41;0.93;;;0.60;;
3939;SDS011;1984;48.312;9.244;2023-11-21T14:06:16;0.47;;;0.40;;
3939;SDS011;1984;48.312;9.244;2023-11-21T14:08:50;0.40;;;0.40;;
3939;SDS011;1984;48.312;9.244;2023-11-21T14:11:16;0.70;;;0.70;;
3939;SDS011;1984;48.312;9.244;2023-11-21T14:13:43;0.60;;;0.50;;
3939;SDS011;1984;48.312;9.244;2023-11-21T14:16:13;3.13;;;0.50;;
3939;SDS011;1984;48.312;9.244;2023-11-21T14:18:41;0.40;;;0.40;;
3939;SDS011;1984;48.312;9.244;2023-11-21T14:21:18;0.40;;;0.40;;
3939;SDS011;1984;48.312;9.244;2023-11-21T14:23:43;0.40;;;0.40;;
3939;SDS011;1984;48.312;9.244;2023-11-21T14:26:10;0.50;;;0.50;;
3939;SDS011;1984;48.312;9.244;2023-11-21T14:28:39;0.40;;;0.40;;
3939;SDS011;1984;48.312;9.244;2023-11-21T14:31:04;0.50;;;0.50;;
3939;SDS011;1984;48.312;9.244;2023-11-21T14:33:30;0.40;;;0.40;;
3939;SDS011;1984;48.312;9.244;2023-11-21T14:35:55;0.50;;;0.40;;
3939;SDS011;1984;48.312;9.244;2023-11-21T14:38:22;0.40;;;0.40;;
3939;SDS011;1984;48.312;9.244;2023-11-21T14:40:48;0.50;;;0.50;;
3939;SDS011;1984;48.312;9.244;2023-11-21T14:43:14;0.40;;;0.40;;
3939;SDS011;1984;48.312;9.244;2023-11-21T14:45:40;2.00;;;0.50;;
3939;SDS011;1984;48.312;9.244;2023-11-21T14:48:06;0.60;;;0.60;;
3939;SDS011;1984;48.312;9.244;2023-11-21T14:50:36;0.90;;;0.90;;
3939;SDS011;1984;48.312;9.244;2023-11-21T14:53:34;4.00;;;0.70;;
3939;SDS011;1984;48.312;9.244;2023-11-21T14:56:12;0.77;;;0.77;;
3939;SDS011;1984;48.312;9.244;2023-11-21T14:58:46;0.50;;;0.50;;
3939;SDS011;1984;48.312;9.244;2023-11-21T15:01:11;0.70;;;0.70;;
3939;SDS011;1984;48.312;9.244;2023-11-21T15:03:38;1.00;;;0.83;;
3939;SDS011;1984;48.312;9.244;2023-11-21T15:06:13;1.57;;;1.00;;
3939;SDS011;1984;48.312;9.244;2023-11-21T15:08:48;0.80;;;0.80;;
3939;SDS011;1984;48.312;9.244;2023-11-21T15:11:21;1.97;;;1.80;;
3939;SDS011;1984;48.312;9.244;2023-11-21T15:13:52;1.60;;;1.50;;
3939;SDS011;1984;48.312;9.244;2023-11-21T15:16:19;2.50;;;1.00;;
3939;SDS011;1984;48.312;9.244;2023-11-21T15:18:44;1.33;;;1.27;;
3939;SDS011;1984;48.312;9.244;2023-11-21T15:21:10;1.30;;;1.20;;
3939;SDS011;1984;48.312;9.244;2023-11-21T15:23:37;1.07;;;0.90;;
3939;SDS011;1984;48.312;9.244;2023-11-21T15:26:04;1.23;;;1.13;;
3939;SDS011;1984;48.312;9.244;2023-11-21T15:28:30;0.87;;;0.87;;
3939;SDS011;1984;48.312;9.244;2023-11-21T15:30:57;1.50;;;1.40;;
3939;SDS011;1984;48.312;9.244;2023-11-21T15:33:23;2.23;;;1.83;;
3939;SDS011;1984;48.312;9.244;2023-11-21T15:35:48;1.77;;;1.40;;